createdAt,value
2022-08-08T00:02:30.284Z,3.25
2022-08-08T00:05:11.060Z,3.40
2022-08-08T00:07:56.683Z,3.10
2022-08-08T00:10:39.154Z,3.72
2022-08-08T00:13:10.592Z,3.67
2022-08-08T00:18:35.243Z,3.60
2022-08-08T00:21:05.224Z,3.30
2022-08-08T00:23:57.598Z,2.97
2022-08-08T00:29:15.043Z,3.30
2022-08-08T00:32:20.779Z,3.60
2022-08-08T00:34:58.136Z,3.10
2022-08-08T00:37:47.238Z,3.10
2022-08-08T00:41:10.327Z,3.33
2022-08-08T00:43:20.371Z,3.17
2022-08-08T00:46:16.366Z,3.35
2022-08-08T00:49:05.265Z,2.90
2022-08-08T00:52:19.429Z,3.33
2022-08-08T00:55:12.773Z,3.50
2022-08-08T00:58:05.259Z,3.10
2022-08-08T01:00:51.303Z,3.40
2022-08-08T01:04:02.569Z,3.25
2022-08-08T01:06:52.077Z,3.47
2022-08-08T01:09:36.845Z,3.50
2022-08-08T01:12:29.801Z,3.40
2022-08-08T01:15:07.050Z,3.65
2022-08-08T01:18:19.712Z,4.05
2022-08-08T01:20:51.682Z,4.32
2022-08-08T01:24:03.069Z,4.05
2022-08-08T01:26:49.226Z,4.38
2022-08-08T01:29:59.540Z,4.15
2022-08-08T01:33:16.338Z,5.47
2022-08-08T01:36:05.985Z,4.70
2022-08-08T01:38:41.782Z,6.05
2022-08-08T01:41:16.007Z,4.88
2022-08-08T01:43:53.373Z,4.93
2022-08-08T01:46:47.447Z,4.80
2022-08-08T01:49:44.185Z,5.93
2022-08-08T01:52:44.581Z,5.53
2022-08-08T01:56:27.034Z,6.18
2022-08-08T01:58:38.466Z,5.00
2022-08-08T02:01:17.093Z,4.10
2022-08-08T02:04:08.759Z,6.45
2022-08-08T02:06:43.424Z,4.70
2022-08-08T02:10:01.075Z,4.60
2022-08-08T02:12:32.240Z,5.30
2022-08-08T02:15:16.030Z,6.75
2022-08-08T02:18:10.191Z,6.43
2022-08-08T02:21:28.539Z,6.15
2022-08-08T02:24:24.822Z,6.63
2022-08-08T02:27:10.492Z,6.47
2022-08-08T02:29:53.207Z,7.20
2022-08-08T02:32:54.884Z,6.47
2022-08-08T02:36:03.705Z,7.25
2022-08-08T02:38:34.591Z,6.22
2022-08-08T02:41:59.511Z,5.47
2022-08-08T02:44:35.488Z,6.45
2022-08-08T02:47:47.167Z,6.82
2022-08-08T02:51:07.247Z,6.30
2022-08-08T02:53:57.562Z,5.80
2022-08-08T02:56:43.049Z,7.57
2022-08-08T03:00:26.931Z,6.28
2022-08-08T03:03:03.900Z,6.60
2022-08-08T03:05:57.258Z,7.03
2022-08-08T03:09:01.494Z,7.63
2022-08-08T03:12:06.084Z,7.00
2022-08-08T03:18:13.526Z,8.95
2022-08-08T03:20:51.405Z,8.57
2022-08-08T03:23:23.422Z,7.47
2022-08-08T03:28:42.970Z,8.02
2022-08-08T03:31:28.144Z,10.85
2022-08-08T03:34:04.633Z,6.90
2022-08-08T03:36:31.589Z,8.10
2022-08-08T03:39:14.618Z,11.43
2022-08-08T03:42:26.798Z,9.88
2022-08-08T03:44:35.593Z,10.20
2022-08-08T03:47:19.217Z,9.73
2022-08-08T03:49:59.502Z,8.57
2022-08-08T03:52:30.215Z,10.63
2022-08-08T03:55:01.929Z,6.90
2022-08-08T03:58:32.274Z,10.63
2022-08-08T04:00:27.852Z,9.27
2022-08-08T04:03:03.442Z,10.13
2022-08-08T04:05:36.208Z,10.95
2022-08-08T04:08:05.379Z,10.35
2022-08-08T04:10:34.636Z,9.27
2022-08-08T04:13:17.430Z,9.30
2022-08-08T04:15:54.711Z,9.00
2022-08-08T04:18:30.971Z,9.55
2022-08-08T04:20:57.786Z,10.15
2022-08-08T04:23:24.288Z,5.72
2022-08-08T04:26:04.067Z,7.88
2022-08-08T04:28:40.502Z,7.15
2022-08-08T04:31:09.292Z,6.13
2022-08-08T04:33:41.698Z,4.93
2022-08-08T04:36:08.743Z,5.82
2022-08-08T04:38:35.298Z,5.15
2022-08-08T04:41:02.112Z,4.60
2022-08-08T04:43:32.240Z,4.60
2022-08-08T04:46:14.763Z,5.20
2022-08-08T04:48:41.625Z,5.25
2022-08-08T04:51:09.401Z,5.25
2022-08-08T04:54:27.174Z,5.40
2022-08-08T04:56:22.639Z,5.03
2022-08-08T04:58:50.538Z,4.88
2022-08-08T05:01:17.874Z,5.15
2022-08-08T05:04:10.542Z,4.75
2022-08-08T05:06:31.288Z,4.63
2022-08-08T05:09:02.639Z,4.82
2022-08-08T05:11:29.908Z,4.30
2022-08-08T05:14:05.739Z,4.63
2022-08-08T05:16:54.651Z,4.97
2022-08-08T05:20:10.417Z,4.10
2022-08-08T05:22:09.806Z,5.40
2022-08-08T05:24:37.654Z,5.13
2022-08-08T05:27:06.037Z,4.65
2022-08-08T05:29:35.843Z,4.28
2022-08-08T05:32:08.123Z,5.87
2022-08-08T05:34:41.979Z,5.05
2022-08-08T05:37:17.186Z,5.07
2022-08-08T05:39:56.953Z,5.75
2022-08-08T05:42:35.526Z,5.00
2022-08-08T05:45:10.385Z,5.05
2022-08-08T05:48:00.039Z,5.32
2022-08-08T05:50:29.917Z,4.97
2022-08-08T05:53:53.941Z,4.40
2022-08-08T05:56:10.082Z,4.95
2022-08-08T05:58:53.999Z,4.45
2022-08-08T06:01:56.105Z,4.40
2022-08-08T06:04:23.079Z,4.32
2022-08-08T06:06:56.659Z,4.43
2022-08-08T06:09:59.321Z,5.15
2022-08-08T06:12:30.149Z,4.38
2022-08-08T06:15:00.074Z,4.70
2022-08-08T06:17:32.036Z,5.57
2022-08-08T06:20:14.245Z,4.97
2022-08-08T06:22:43.062Z,4.75
2022-08-08T06:25:10.359Z,5.40
2022-08-08T06:27:57.744Z,4.78
2022-08-08T06:30:26.255Z,4.88
2022-08-08T06:32:57.450Z,4.80
2022-08-08T06:36:06.995Z,4.80
2022-08-08T06:38:14.484Z,4.43
2022-08-08T06:40:48.448Z,4.45
2022-08-08T06:43:20.812Z,4.93
2022-08-08T06:45:56.173Z,4.63
2022-08-08T06:48:26.648Z,5.10
2022-08-08T06:50:54.011Z,6.20
2022-08-08T06:53:21.926Z,4.93
2022-08-08T06:56:02.088Z,4.80
2022-08-08T06:58:33.708Z,4.55
2022-08-08T07:01:24.433Z,5.32
2022-08-08T07:04:40.076Z,5.53
2022-08-08T07:06:45.016Z,4.75
2022-08-08T07:09:17.874Z,5.47
2022-08-08T07:11:52.288Z,4.22
2022-08-08T07:14:32.880Z,3.75
2022-08-08T07:17:09.123Z,5.40
2022-08-08T07:19:59.759Z,4.20
2022-08-08T07:22:57.704Z,4.90
2022-08-08T07:25:29.390Z,4.82
2022-08-08T07:28:19.578Z,5.40
2022-08-08T07:30:46.727Z,5.32
2022-08-08T07:33:17.739Z,4.65
2022-08-08T07:35:47.232Z,4.53
2022-08-08T07:38:20.396Z,4.88
2022-08-08T07:40:49.068Z,5.05
2022-08-08T07:43:32.386Z,4.70
2022-08-08T07:46:17.392Z,4.72
2022-08-08T07:48:50.756Z,4.22
2022-08-08T07:51:23.651Z,5.10
2022-08-08T07:54:12.447Z,5.38
2022-08-08T07:57:36.453Z,4.78
2022-08-08T08:00:13.196Z,5.55
2022-08-08T08:02:44.549Z,6.15
2022-08-08T08:05:22.584Z,6.07
2022-08-08T08:08:20.979Z,6.18
2022-08-08T08:10:52.659Z,6.30
2022-08-08T08:13:42.795Z,7.20
2022-08-08T08:16:34.741Z,6.90
2022-08-08T08:19:05.177Z,8.57
2022-08-08T08:21:57.044Z,7.20
2022-08-08T08:24:30.794Z,8.82
2022-08-08T08:27:02.701Z,6.88
2022-08-08T08:29:30.091Z,7.25
2022-08-08T08:31:58.279Z,6.88
2022-08-08T08:34:32.343Z,8.25
2022-08-08T08:37:08.406Z,8.23
2022-08-08T08:40:00.496Z,6.03
2022-08-08T08:42:31.367Z,6.82
2022-08-08T08:45:21.161Z,5.85
2022-08-08T08:47:52.980Z,7.20
2022-08-08T08:50:33.077Z,5.70
2022-08-08T08:53:54.695Z,6.22
2022-08-08T08:56:01.415Z,7.60
2022-08-08T08:58:35.565Z,7.97
2022-08-08T09:01:10.119Z,6.55
2022-08-08T09:03:47.739Z,6.53
2022-08-08T09:06:28.205Z,7.22
2022-08-08T09:09:25.849Z,5.93
2022-08-08T09:12:02.070Z,5.88
2022-08-08T09:14:35.219Z,8.40
2022-08-08T09:17:09.765Z,6.90
2022-08-08T09:21:59.246Z,7.35
2022-08-08T09:22:27.582Z,6.40
2022-08-08T09:24:55.895Z,7.97
2022-08-08T09:27:57.691Z,7.45
2022-08-08T09:30:14.501Z,5.75
2022-08-08T09:33:12.408Z,7.05
2022-08-08T09:35:48.711Z,6.55
2022-08-08T09:38:29.687Z,6.28
2022-08-08T09:41:04.573Z,7.15
2022-08-08T09:44:04.466Z,9.05
2022-08-08T09:46:25.544Z,7.93
2022-08-08T09:49:18.182Z,7.32
2022-08-08T09:52:06.232Z,8.02
2022-08-08T09:54:54.337Z,7.70
2022-08-08T09:57:46.208Z,9.55
2022-08-08T10:00:35.840Z,7.90
2022-08-08T10:03:04.198Z,7.07
2022-08-08T10:05:36.148Z,7.75
2022-08-08T10:08:09.910Z,9.77
2022-08-08T10:10:41.430Z,10.02
2022-08-08T10:13:35.721Z,7.43
2022-08-08T10:16:05.851Z,10.35
2022-08-08T10:18:36.843Z,7.63
2022-08-08T10:21:25.229Z,5.90
2022-08-08T10:24:02.851Z,6.55
2022-08-08T10:26:57.248Z,7.30
2022-08-08T10:29:58.871Z,7.47
2022-08-08T10:32:32.570Z,7.25
2022-08-08T10:36:07.679Z,6.80
2022-08-08T10:38:15.054Z,5.72
2022-08-08T10:40:45.762Z,5.70
2022-08-08T10:43:12.944Z,6.55
2022-08-08T10:45:56.466Z,5.57
2022-08-08T10:48:56.574Z,5.03
2022-08-08T10:51:50.824Z,5.70
2022-08-08T10:54:25.336Z,4.45
2022-08-08T10:57:03.836Z,5.25
2022-08-08T10:59:39.266Z,5.85
2022-08-08T11:02:07.307Z,5.53
2022-08-08T11:04:44.915Z,5.25
2022-08-08T11:08:31.248Z,4.80
2022-08-08T11:10:29.174Z,4.75
2022-08-08T11:13:28.466Z,5.10
2022-08-08T11:16:00.299Z,5.15
2022-08-08T11:18:30.358Z,4.80
2022-08-08T11:20:59.145Z,4.53
2022-08-08T11:23:32.942Z,4.88
2022-08-08T11:26:03.383Z,4.78
2022-08-08T11:28:34.815Z,4.47
2022-08-08T11:31:05.768Z,4.38
2022-08-08T11:33:52.651Z,4.10
2022-08-08T11:36:27.708Z,5.10
2022-08-08T11:38:56.999Z,4.47
2022-08-08T11:41:28.172Z,5.10
2022-08-08T11:43:59.738Z,4.22
2022-08-08T11:46:30.568Z,4.93
2022-08-08T11:48:59.826Z,5.30
2022-08-08T11:51:29.927Z,5.00
2022-08-08T11:54:04.772Z,4.85
2022-08-08T11:56:42.096Z,4.78
2022-08-08T11:59:10.679Z,4.50
2022-08-08T12:01:37.932Z,5.35
2022-08-08T12:04:05.831Z,5.28
2022-08-08T12:06:33.649Z,5.25
2022-08-08T12:09:08.848Z,5.25
2022-08-08T12:11:41.338Z,4.32
2022-08-08T12:14:11.626Z,5.38
2022-08-08T12:16:49.374Z,4.97
2022-08-08T12:19:21.982Z,4.45
2022-08-08T12:22:09.445Z,4.70
2022-08-08T12:24:51.371Z,5.03
2022-08-08T12:27:27.055Z,4.88
2022-08-08T12:30:15.673Z,4.93
2022-08-08T12:32:48.135Z,4.90
2022-08-08T12:35:23.010Z,14.52
2022-08-08T12:38:07.746Z,5.22
2022-08-08T12:40:54.812Z,5.47
2022-08-08T12:43:43.420Z,5.70
2022-08-08T12:46:19.292Z,5.53
2022-08-08T12:49:25.547Z,5.30
2022-08-08T12:51:58.555Z,5.30
2022-08-08T12:54:33.409Z,4.90
2022-08-08T12:57:23.297Z,5.40
2022-08-08T13:00:06.318Z,5.22
2022-08-08T13:02:51.073Z,5.30
2022-08-08T13:05:26.983Z,5.78
2022-08-08T13:08:38.425Z,5.15
2022-08-08T13:11:05.401Z,5.30
2022-08-08T13:13:35.106Z,5.28
2022-08-08T13:16:37.133Z,5.35
2022-08-08T13:19:11.778Z,5.05
2022-08-08T13:21:53.549Z,4.93
2022-08-08T13:24:40.976Z,5.30
2022-08-08T13:27:35.303Z,4.38
2022-08-08T13:30:05.870Z,5.50
2022-08-08T13:32:39.527Z,5.13
2022-08-08T13:35:24.330Z,5.63
2022-08-08T13:38:06.794Z,5.60
2022-08-08T13:40:35.215Z,5.35
2022-08-08T13:43:03.868Z,4.75
2022-08-08T13:45:31.025Z,4.85
2022-08-08T13:48:01.650Z,4.60
2022-08-08T13:50:44.015Z,6.78
2022-08-08T13:53:33.950Z,5.30
2022-08-08T13:56:11.852Z,5.00
2022-08-08T13:58:57.351Z,5.65
2022-08-08T14:01:41.815Z,5.70
2022-08-08T14:04:22.368Z,5.40
2022-08-08T14:06:58.140Z,5.50
2022-08-08T14:10:04.526Z,5.03
2022-08-08T14:12:26.110Z,5.00
2022-08-08T14:14:55.009Z,5.25
2022-08-08T14:17:22.752Z,5.57
2022-08-08T14:20:14.693Z,5.60
2022-08-08T14:22:43.108Z,5.32
2022-08-08T14:25:15.363Z,5.15
2022-08-08T14:27:59.541Z,6.18
2022-08-08T14:30:34.427Z,5.13
2022-08-08T14:33:01.462Z,4.82
2022-08-08T14:35:36.050Z,5.65
2022-08-08T14:38:34.765Z,5.10
2022-08-08T14:40:59.431Z,5.10
2022-08-08T14:44:02.684Z,5.28
2022-08-08T14:46:16.754Z,5.25
2022-08-08T14:48:56.905Z,4.82
2022-08-08T14:51:47.181Z,4.88
2022-08-08T14:54:13.745Z,4.60
2022-08-08T14:56:42.823Z,5.05
2022-08-08T14:59:22.463Z,4.55
2022-08-08T15:02:00.636Z,4.90
2022-08-08T15:04:27.300Z,4.85
2022-08-08T15:06:55.585Z,4.05
2022-08-08T15:09:23.202Z,4.45
2022-08-08T15:11:53.145Z,4.30
2022-08-08T15:14:22.525Z,4.50
2022-08-08T15:16:53.255Z,4.10
2022-08-08T15:19:19.796Z,4.10
2022-08-08T15:21:50.278Z,4.97
2022-08-08T15:24:17.061Z,4.38
2022-08-08T15:26:52.453Z,4.80
2022-08-08T15:29:22.621Z,4.70
2022-08-08T15:32:03.867Z,4.63
2022-08-08T15:34:38.692Z,4.97
2022-08-08T15:37:05.746Z,4.95
2022-08-08T15:39:37.544Z,4.55
2022-08-08T15:42:06.852Z,4.28
2022-08-08T15:44:41.080Z,4.38
2022-08-08T15:47:15.584Z,4.32
2022-08-08T15:49:47.825Z,4.70
2022-08-08T15:52:16.065Z,4.53
2022-08-08T15:54:46.183Z,4.93
2022-08-08T15:57:18.569Z,4.13
2022-08-08T16:00:06.617Z,5.57
2022-08-08T16:02:32.171Z,4.43
2022-08-08T16:05:00.781Z,5.57
2022-08-08T16:07:50.729Z,6.80
2022-08-08T16:13:12.125Z,5.10
2022-08-08T16:13:28.418Z,4.38
2022-08-08T16:15:58.544Z,4.60
2022-08-08T16:18:30.861Z,4.30
2022-08-08T16:21:00.263Z,4.40
2022-08-08T16:23:31.823Z,3.92
2022-08-08T16:26:03.953Z,3.97
2022-08-08T16:28:34.860Z,4.00
2022-08-08T16:31:07.552Z,3.70
2022-08-08T16:33:38.075Z,4.50
2022-08-08T16:36:05.801Z,4.80
2022-08-08T16:38:36.461Z,4.45
2022-08-08T16:41:11.758Z,4.40
2022-08-08T16:43:51.294Z,4.60
2022-08-08T16:46:43.021Z,4.32
2022-08-08T16:49:07.883Z,4.43
2022-08-08T16:55:20.748Z,4.50
2022-08-08T16:55:22.688Z,5.20
2022-08-08T16:57:23.451Z,5.30
2022-08-08T16:59:58.149Z,4.60
2022-08-08T17:02:44.298Z,4.60
2022-08-08T17:05:13.824Z,4.95
2022-08-08T17:07:41.753Z,5.18
2022-08-08T17:10:10.226Z,4.47
2022-08-08T17:12:38.706Z,4.93
2022-08-08T17:15:20.411Z,5.10
2022-08-08T17:18:03.538Z,4.95
2022-08-08T17:20:39.537Z,5.10
2022-08-08T17:23:17.693Z,5.25
2022-08-08T17:25:56.362Z,4.68
2022-08-08T17:28:34.994Z,5.28
2022-08-08T17:31:44.554Z,4.60
2022-08-08T17:34:36.772Z,5.20
2022-08-08T17:37:00.766Z,4.43
2022-08-08T17:40:05.067Z,4.95
2022-08-08T17:42:15.527Z,4.78
2022-08-08T17:44:44.096Z,5.28
2022-08-08T17:47:11.347Z,5.18
2022-08-08T17:49:51.609Z,4.80
2022-08-08T17:52:18.491Z,5.05
2022-08-08T17:54:46.170Z,4.97
2022-08-08T17:57:14.247Z,5.10
2022-08-08T17:59:45.380Z,5.20
2022-08-08T18:02:18.498Z,4.93
2022-08-08T18:04:50.314Z,5.22
2022-08-08T18:08:03.499Z,5.15
2022-08-08T18:10:04.041Z,5.38
2022-08-08T18:12:30.681Z,4.85
2022-08-08T18:14:57.663Z,5.32
2022-08-08T18:17:28.647Z,5.45
2022-08-08T18:20:43.343Z,5.32
2022-08-08T18:22:51.255Z,5.13
2022-08-08T18:25:18.186Z,5.38
2022-08-08T18:27:46.419Z,5.60
2022-08-08T18:30:13.351Z,5.75
2022-08-08T18:32:41.974Z,5.47
2022-08-08T18:35:15.350Z,5.22
2022-08-08T18:37:48.090Z,5.65
2022-08-08T18:40:15.496Z,5.10
2022-08-08T18:42:45.621Z,4.70
2022-08-08T18:46:00.677Z,5.10
2022-08-08T18:48:07.487Z,4.82
2022-08-08T18:53:06.525Z,4.85
2022-08-08T18:55:33.885Z,5.43
2022-08-08T18:58:00.497Z,5.10
2022-08-08T19:00:27.116Z,5.20
2022-08-08T19:02:57.974Z,5.05
2022-08-08T19:05:37.794Z,5.13
2022-08-08T19:08:24.821Z,5.07
2022-08-08T19:10:55.964Z,4.53
2022-08-08T19:13:25.116Z,4.47
2022-08-08T19:15:55.775Z,4.82
2022-08-08T19:18:32.184Z,4.80
2022-08-08T19:21:28.844Z,4.60
2022-08-08T19:23:56.979Z,5.25
2022-08-08T19:26:30.232Z,4.70
2022-08-08T19:28:57.964Z,5.07
2022-08-08T19:31:31.304Z,4.68
2022-08-08T19:34:30.464Z,5.53
2022-08-08T19:36:52.035Z,4.60
2022-08-08T19:39:19.479Z,4.75
2022-08-08T19:41:49.377Z,5.05
2022-08-08T19:44:42.309Z,4.70
2022-08-08T19:47:03.175Z,4.63
2022-08-08T19:49:37.679Z,5.68
2022-08-08T19:52:06.049Z,5.07
2022-08-08T19:54:32.588Z,5.30
2022-08-08T19:56:59.745Z,5.78
2022-08-08T19:59:31.077Z,5.60
2022-08-08T20:02:04.678Z,5.90
2022-08-08T20:04:33.726Z,6.10
2022-08-08T20:08:26.900Z,5.50
2022-08-08T20:09:56.576Z,5.55
2022-08-08T20:12:32.255Z,5.88
2022-08-08T20:15:14.084Z,5.72
2022-08-08T20:17:43.419Z,6.15
2022-08-08T20:20:18.902Z,5.97
2022-08-08T20:22:54.293Z,5.95
2022-08-08T20:25:24.854Z,6.13
2022-08-08T20:27:56.439Z,6.00
2022-08-08T20:30:53.209Z,5.85
2022-08-08T20:33:20.145Z,6.00
2022-08-08T20:35:57.921Z,5.57
2022-08-08T20:38:32.148Z,5.88
2022-08-08T20:41:00.232Z,6.07
2022-08-08T20:43:43.906Z,5.88
2022-08-08T20:46:13.457Z,5.93
2022-08-08T20:48:41.002Z,6.03
2022-08-08T20:51:07.783Z,6.10
2022-08-08T20:54:00.726Z,5.70
2022-08-08T20:56:36.058Z,6.10
2022-08-08T20:59:09.187Z,6.30
2022-08-08T21:02:05.778Z,6.18
2022-08-08T21:04:23.766Z,6.68
2022-08-08T21:06:54.514Z,6.72
2022-08-08T21:09:21.878Z,6.35
2022-08-08T21:11:51.880Z,6.57
2022-08-08T21:17:00.517Z,6.07
2022-08-08T21:19:44.394Z,6.43
2022-08-08T21:22:13.871Z,10.18
2022-08-08T21:24:41.757Z,9.88
2022-08-08T21:27:38.890Z,7.82
2022-08-08T21:30:12.175Z,5.60
2022-08-08T21:32:51.131Z,5.57
2022-08-08T21:36:13.894Z,6.63
2022-08-08T21:38:11.779Z,5.82
2022-08-08T21:40:54.730Z,5.10
2022-08-08T21:43:23.764Z,5.80
2022-08-08T21:48:04.937Z,5.88
2022-08-08T21:48:44.805Z,6.20
2022-08-08T21:51:46.057Z,5.87
2022-08-08T21:54:32.855Z,5.90
2022-08-08T21:56:51.484Z,6.35
2022-08-08T21:59:20.876Z,6.28
2022-08-08T22:01:52.525Z,5.90
2022-08-08T22:04:24.532Z,6.40
2022-08-08T22:06:52.464Z,7.47
2022-08-08T22:09:19.558Z,6.18
2022-08-08T22:12:02.652Z,6.25
2022-08-08T22:14:31.532Z,5.45
2022-08-08T22:17:01.182Z,6.25
2022-08-08T22:19:29.805Z,6.32
2022-08-08T22:21:57.377Z,6.13
2022-08-08T22:24:28.268Z,6.60
2022-08-08T22:27:02.172Z,6.70
2022-08-08T22:29:59.552Z,6.90
2022-08-08T22:32:19.448Z,6.60
2022-08-08T22:34:51.330Z,6.47
2022-08-08T22:37:49.134Z,7.32
2022-08-08T22:40:11.893Z,6.05
2022-08-08T22:42:47.073Z,7.25
2022-08-08T22:45:13.903Z,6.43
2022-08-08T22:47:48.683Z,7.20
2022-08-08T22:50:25.779Z,6.85
2022-08-08T22:54:30.925Z,6.07
2022-08-08T22:55:57.994Z,7.25
2022-08-08T22:58:33.257Z,7.10
2022-08-08T23:01:26.585Z,6.85
2022-08-08T23:03:53.591Z,7.30
2022-08-08T23:06:21.671Z,6.72
2022-08-08T23:08:54.536Z,7.43
2022-08-08T23:11:31.043Z,7.10
2022-08-08T23:14:11.437Z,7.28
2022-08-08T23:16:43.381Z,7.40
2022-08-08T23:19:10.897Z,6.45
2022-08-08T23:21:38.028Z,9.13
2022-08-08T23:24:06.587Z,7.82
2022-08-08T23:26:34.016Z,7.80
2022-08-08T23:29:00.876Z,8.63
2022-08-08T23:31:27.343Z,7.13
2022-08-08T23:34:16.506Z,7.78
2022-08-08T23:36:40.463Z,7.60
2022-08-08T23:39:07.792Z,7.55
2022-08-08T23:41:45.482Z,8.25
2022-08-08T23:44:13.351Z,7.80
2022-08-08T23:49:00.667Z,9.20
2022-08-08T23:49:26.578Z,8.57
2022-08-08T23:52:06.078Z,8.82
2022-08-08T23:54:41.403Z,8.80
2022-08-08T23:57:25.162Z,7.90
